sensor_id;sensor_type;location;lat;lon;timestamp;P1;durP1;ratioP1;P2;durP2;ratioP2
2756;SDS011;1386;50.862;6.494;2023-02-28T02:26:45;6.55;;;4.30;;
2756;SDS011;1386;50.862;6.494;2023-02-28T02:29:25;7.22;;;4.63;;
2756;SDS011;1386;50.862;6.494;2023-02-28T02:32:22;5.72;;;4.35;;
2756;SDS011;1386;50.862;6.494;2023-02-28T02:35:11;4.30;;;3.85;;
2756;SDS011;1386;50.862;6.494;2023-02-28T02:37:41;4.65;;;4.25;;
2756;SDS011;1386;50.862;6.494;2023-02-28T02:40:19;4.50;;;3.90;;
2756;SDS011;1386;50.862;6.494;2023-02-28T02:42:49;5.53;;;4.13;;
2756;SDS011;1386;50.862;6.494;2023-02-28T02:45:25;4.22;;;3.83;;
2756;SDS011;1386;50.862;6.494;2023-02-28T02:48:00;5.00;;;4.65;;
2756;SDS011;1386;50.862;6.494;2023-02-28T02:50:31;7.05;;;4.75;;
2756;SDS011;1386;50.862;6.494;2023-02-28T02:53:04;7.25;;;4.32;;
2756;SDS011;1386;50.862;6.494;2023-02-28T02:55:34;7.40;;;4.20;;
2756;SDS011;1386;50.862;6.494;2023-02-28T02:58:09;8.40;;;4.75;;
2756;SDS011;1386;50.862;6.494;2023-02-28T03:00:43;5.90;;;4.53;;
2756;SDS011;1386;50.862;6.494;2023-02-28T03:03:13;6.25;;;4.78;;
2756;SDS011;1386;50.862;6.494;2023-02-28T03:05:57;6.45;;;4.10;;
2756;SDS011;1386;50.862;6.494;2023-02-28T03:08:25;6.68;;;4.35;;
2756;SDS011;1386;50.862;6.494;2023-02-28T03:11:03;5.85;;;4.68;;
2756;SDS011;1386;50.862;6.494;2023-02-28T03:16:49;10.30;;;4.85;;
2756;SDS011;1386;50.862;6.494;2023-02-28T03:19:39;4.70;;;4.20;;
2756;SDS011;1386;50.862;6.494;2023-02-28T03:22:21;5.40;;;4.90;;
2756;SDS011;1386;50.862;6.494;2023-02-28T03:25:04;5.63;;;4.00;;
2756;SDS011;1386;50.862;6.494;2023-02-28T03:27:36;4.90;;;4.40;;
2756;SDS011;1386;50.862;6.494;2023-02-28T03:30:09;4.60;;;4.07;;
2756;SDS011;1386;50.862;6.494;2023-02-28T03:32:40;4.75;;;4.45;;
2756;SDS011;1386;50.862;6.494;2023-02-28T03:35:11;4.40;;;4.00;;
2756;SDS011;1386;50.862;6.494;2023-02-28T03:37:55;4.35;;;3.70;;
2756;SDS011;1386;50.862;6.494;2023-02-28T03:40:28;7.07;;;4.95;;
2756;SDS011;1386;50.862;6.494;2023-02-28T03:43:08;9.85;;;4.65;;
2756;SDS011;1386;50.862;6.494;2023-02-28T03:45:38;12.95;;;5.45;;
2756;SDS011;1386;50.862;6.494;2023-02-28T03:48:13;10.18;;;5.20;;
2756;SDS011;1386;50.862;6.494;2023-02-28T03:50:47;10.07;;;7.00;;
2756;SDS011;1386;50.862;6.494;2023-02-28T03:53:20;8.20;;;5.85;;
2756;SDS011;1386;50.862;6.494;2023-02-28T03:55:52;13.38;;;4.60;;
2756;SDS011;1386;50.862;6.494;2023-02-28T03:58:24;17.30;;;5.30;;
2756;SDS011;1386;50.862;6.494;2023-02-28T04:00:57;8.27;;;6.90;;
2756;SDS011;1386;50.862;6.494;2023-02-28T04:03:32;11.90;;;4.78;;
2756;SDS011;1386;50.862;6.494;2023-02-28T04:06:00;6.60;;;4.88;;
2756;SDS011;1386;50.862;6.494;2023-02-28T04:08:32;9.18;;;4.28;;
2756;SDS011;1386;50.862;6.494;2023-02-28T04:11:00;12.95;;;5.57;;
2756;SDS011;1386;50.862;6.494;2023-02-28T04:13:30;5.10;;;4.60;;
2756;SDS011;1386;50.862;6.494;2023-02-28T04:15:57;5.82;;;4.45;;
2756;SDS011;1386;50.862;6.494;2023-02-28T04:18:26;5.47;;;4.97;;
2756;SDS011;1386;50.862;6.494;2023-02-28T04:20:53;6.25;;;4.28;;
2756;SDS011;1386;50.862;6.494;2023-02-28T04:23:20;6.15;;;4.15;;
2756;SDS011;1386;50.862;6.494;2023-02-28T04:25:48;12.40;;;5.40;;
2756;SDS011;1386;50.862;6.494;2023-02-28T04:28:16;11.48;;;4.65;;
2756;SDS011;1386;50.862;6.494;2023-02-28T04:30:42;11.65;;;5.20;;
2756;SDS011;1386;50.862;6.494;2023-02-28T04:33:11;12.93;;;5.20;;
2756;SDS011;1386;50.862;6.494;2023-02-28T04:35:40;4.53;;;4.20;;
2756;SDS011;1386;50.862;6.494;2023-02-28T04:38:07;8.43;;;4.93;;
2756;SDS011;1386;50.862;6.494;2023-02-28T04:40:37;10.48;;;4.97;;
2756;SDS011;1386;50.862;6.494;2023-02-28T04:43:06;5.03;;;4.53;;
2756;SDS011;1386;50.862;6.494;2023-02-28T04:45:33;6.20;;;4.50;;
2756;SDS011;1386;50.862;6.494;2023-02-28T04:48:01;6.38;;;4.60;;
2756;SDS011;1386;50.862;6.494;2023-02-28T04:50:27;8.27;;;4.50;;
2756;SDS011;1386;50.862;6.494;2023-02-28T04:52:58;7.68;;;5.30;;
2756;SDS011;1386;50.862;6.494;2023-02-28T04:55:24;6.95;;;5.30;;
2756;SDS011;1386;50.862;6.494;2023-02-28T04:57:51;7.82;;;5.47;;
2756;SDS011;1386;50.862;6.494;2023-02-28T05:00:25;7.18;;;5.55;;
2756;SDS011;1386;50.862;6.494;2023-02-28T05:02:52;11.63;;;5.47;;
2756;SDS011;1386;50.862;6.494;2023-02-28T05:05:32;14.13;;;5.20;;
2756;SDS011;1386;50.862;6.494;2023-02-28T05:07:59;6.38;;;5.00;;
2756;SDS011;1386;50.862;6.494;2023-02-28T05:10:26;14.35;;;6.18;;
2756;SDS011;1386;50.862;6.494;2023-02-28T05:12:57;7.68;;;4.75;;
2756;SDS011;1386;50.862;6.494;2023-02-28T05:15:28;11.77;;;5.60;;
2756;SDS011;1386;50.862;6.494;2023-02-28T05:17:55;9.18;;;5.15;;
2756;SDS011;1386;50.862;6.494;2023-02-28T05:20:22;6.18;;;5.50;;
2756;SDS011;1386;50.862;6.494;2023-02-28T05:22:49;5.38;;;4.60;;
2756;SDS011;1386;50.862;6.494;2023-02-28T05:25:19;8.40;;;5.28;;
2756;SDS011;1386;50.862;6.494;2023-02-28T05:27:50;7.00;;;5.50;;
2756;SDS011;1386;50.862;6.494;2023-02-28T05:30:22;7.85;;;5.18;;
2756;SDS011;1386;50.862;6.494;2023-02-28T05:32:51;8.02;;;5.50;;
2756;SDS011;1386;50.862;6.494;2023-02-28T05:35:17;8.23;;;5.35;;
2756;SDS011;1386;50.862;6.494;2023-02-28T05:37:44;14.52;;;6.22;;
2756;SDS011;1386;50.862;6.494;2023-02-28T05:40:14;7.65;;;5.88;;
2756;SDS011;1386;50.862;6.494;2023-02-28T05:42:45;9.20;;;6.25;;
2756;SDS011;1386;50.862;6.494;2023-02-28T05:45:14;12.27;;;5.65;;
2756;SDS011;1386;50.862;6.494;2023-02-28T05:47:54;13.85;;;5.90;;
2756;SDS011;1386;50.862;6.494;2023-02-28T05:50:21;7.45;;;5.93;;
2756;SDS011;1386;50.862;6.494;2023-02-28T05:52:49;9.60;;;6.10;;
2756;SDS011;1386;50.862;6.494;2023-02-28T05:55:18;20.33;;;7.30;;
2756;SDS011;1386;50.862;6.494;2023-02-28T05:57:45;10.18;;;5.22;;
2756;SDS011;1386;50.862;6.494;2023-02-28T06:00:12;14.32;;;6.53;;
2756;SDS011;1386;50.862;6.494;2023-02-28T06:02:40;6.50;;;5.75;;
2756;SDS011;1386;50.862;6.494;2023-02-28T06:05:09;8.20;;;5.80;;
2756;SDS011;1386;50.862;6.494;2023-02-28T06:07:45;10.85;;;5.45;;
2756;SDS011;1386;50.862;6.494;2023-02-28T06:10:12;6.85;;;5.70;;
2756;SDS011;1386;50.862;6.494;2023-02-28T06:12:46;12.57;;;5.78;;
2756;SDS011;1386;50.862;6.494;2023-02-28T06:15:13;8.75;;;5.85;;
2756;SDS011;1386;50.862;6.494;2023-02-28T06:17:41;8.20;;;6.00;;
2756;SDS011;1386;50.862;6.494;2023-02-28T06:20:11;17.77;;;6.45;;
2756;SDS011;1386;50.862;6.494;2023-02-28T06:22:44;11.60;;;5.57;;
2756;SDS011;1386;50.862;6.494;2023-02-28T06:25:11;9.65;;;5.88;;
2756;SDS011;1386;50.862;6.494;2023-02-28T06:27:38;14.32;;;5.60;;
2756;SDS011;1386;50.862;6.494;2023-02-28T06:30:05;14.18;;;6.18;;
2756;SDS011;1386;50.862;6.494;2023-02-28T06:32:37;6.68;;;5.50;;
2756;SDS011;1386;50.862;6.494;2023-02-28T06:35:04;9.45;;;6.03;;
2756;SDS011;1386;50.862;6.494;2023-02-28T06:37:37;14.95;;;5.90;;
2756;SDS011;1386;50.862;6.494;2023-02-28T06:40:05;10.20;;;5.88;;
2756;SDS011;1386;50.862;6.494;2023-02-28T06:42:35;6.90;;;5.18;;
2756;SDS011;1386;50.862;6.494;2023-02-28T06:45:02;6.10;;;5.50;;
2756;SDS011;1386;50.862;6.494;2023-02-28T06:47:34;10.43;;;5.95;;
2756;SDS011;1386;50.862;6.494;2023-02-28T06:50:05;15.07;;;6.00;;
2756;SDS011;1386;50.862;6.494;2023-02-28T06:52:34;8.15;;;6.13;;
2756;SDS011;1386;50.862;6.494;2023-02-28T06:55:04;7.00;;;6.30;;
2756;SDS011;1386;50.862;6.494;2023-02-28T06:57:32;6.45;;;5.85;;
2756;SDS011;1386;50.862;6.494;2023-02-28T07:00:04;8.93;;;5.57;;
2756;SDS011;1386;50.862;6.494;2023-02-28T07:02:38;6.60;;;5.82;;
2756;SDS011;1386;50.862;6.494;2023-02-28T07:05:05;8.45;;;6.13;;
2756;SDS011;1386;50.862;6.494;2023-02-28T07:07:35;17.85;;;6.25;;
2756;SDS011;1386;50.862;6.494;2023-02-28T07:10:07;7.03;;;5.88;;
2756;SDS011;1386;50.862;6.494;2023-02-28T07:12:39;6.25;;;5.65;;
2756;SDS011;1386;50.862;6.494;2023-02-28T07:15:16;6.85;;;5.50;;
2756;SDS011;1386;50.862;6.494;2023-02-28T07:17:45;6.57;;;5.45;;
2756;SDS011;1386;50.862;6.494;2023-02-28T07:20:12;6.15;;;5.57;;
2756;SDS011;1386;50.862;6.494;2023-02-28T07:22:39;8.23;;;5.80;;
2756;SDS011;1386;50.862;6.494;2023-02-28T07:25:08;7.18;;;6.45;;
2756;SDS011;1386;50.862;6.494;2023-02-28T07:27:35;7.32;;;6.10;;
2756;SDS011;1386;50.862;6.494;2023-02-28T07:30:08;6.38;;;5.80;;
2756;SDS011;1386;50.862;6.494;2023-02-28T07:32:38;6.25;;;5.78;;
2756;SDS011;1386;50.862;6.494;2023-02-28T07:35:14;5.60;;;5.05;;
2756;SDS011;1386;50.862;6.494;2023-02-28T07:37:46;6.07;;;5.30;;
2756;SDS011;1386;50.862;6.494;2023-02-28T07:40:14;5.50;;;5.00;;
2756;SDS011;1386;50.862;6.494;2023-02-28T07:42:43;10.02;;;5.63;;
2756;SDS011;1386;50.862;6.494;2023-02-28T07:45:10;6.05;;;4.63;;
2756;SDS011;1386;50.862;6.494;2023-02-28T07:47:39;8.55;;;5.65;;
2756;SDS011;1386;50.862;6.494;2023-02-28T07:50:08;6.53;;;4.60;;
2756;SDS011;1386;50.862;6.494;2023-02-28T07:52:37;5.30;;;4.88;;
2756;SDS011;1386;50.862;6.494;2023-02-28T07:55:05;5.80;;;5.30;;
2756;SDS011;1386;50.862;6.494;2023-02-28T07:57:34;5.80;;;5.30;;
2756;SDS011;1386;50.862;6.494;2023-02-28T08:00:02;6.95;;;5.07;;
2756;SDS011;1386;50.862;6.494;2023-02-28T08:02:29;5.70;;;5.20;;
2756;SDS011;1386;50.862;6.494;2023-02-28T08:04:59;5.40;;;4.90;;
2756;SDS011;1386;50.862;6.494;2023-02-28T08:07:27;9.60;;;4.95;;
2756;SDS011;1386;50.862;6.494;2023-02-28T08:09:54;5.70;;;5.10;;
2756;SDS011;1386;50.862;6.494;2023-02-28T08:12:21;5.05;;;4.65;;
2756;SDS011;1386;50.862;6.494;2023-02-28T08:14:49;5.85;;;4.88;;
2756;SDS011;1386;50.862;6.494;2023-02-28T08:17:16;5.20;;;4.80;;
2756;SDS011;1386;50.862;6.494;2023-02-28T08:19:44;5.15;;;4.72;;
2756;SDS011;1386;50.862;6.494;2023-02-28T08:22:12;5.30;;;4.90;;
2756;SDS011;1386;50.862;6.494;2023-02-28T08:24:43;4.38;;;4.00;;
2756;SDS011;1386;50.862;6.494;2023-02-28T08:27:10;7.20;;;4.20;;
2756;SDS011;1386;50.862;6.494;2023-02-28T08:29:38;4.43;;;4.03;;
2756;SDS011;1386;50.862;6.494;2023-02-28T08:32:06;4.50;;;4.05;;
2756;SDS011;1386;50.862;6.494;2023-02-28T08:34:33;5.63;;;4.85;;
2756;SDS011;1386;50.862;6.494;2023-02-28T08:37:00;7.03;;;3.97;;
2756;SDS011;1386;50.862;6.494;2023-02-28T08:39:27;4.93;;;4.53;;
2756;SDS011;1386;50.862;6.494;2023-02-28T08:41:54;5.15;;;4.55;;
2756;SDS011;1386;50.862;6.494;2023-02-28T08:44:21;5.18;;;4.40;;
2756;SDS011;1386;50.862;6.494;2023-02-28T08:46:48;5.13;;;4.63;;
2756;SDS011;1386;50.862;6.494;2023-02-28T08:49:16;4.80;;;4.30;;
2756;SDS011;1386;50.862;6.494;2023-02-28T08:51:43;4.20;;;3.90;;
2756;SDS011;1386;50.862;6.494;2023-02-28T08:54:10;4.82;;;3.95;;
2756;SDS011;1386;50.862;6.494;2023-02-28T08:56:38;4.53;;;3.75;;
2756;SDS011;1386;50.862;6.494;2023-02-28T08:59:05;4.00;;;3.60;;
2756;SDS011;1386;50.862;6.494;2023-02-28T09:01:32;4.13;;;3.70;;
2756;SDS011;1386;50.862;6.494;2023-02-28T09:03:58;5.07;;;3.80;;
2756;SDS011;1386;50.862;6.494;2023-02-28T09:06:30;3.60;;;3.30;;
2756;SDS011;1386;50.862;6.494;2023-02-28T09:09:00;3.57;;;3.30;;
2756;SDS011;1386;50.862;6.494;2023-02-28T09:11:28;3.43;;;3.13;;
2756;SDS011;1386;50.862;6.494;2023-02-28T09:13:57;4.27;;;3.47;;
2756;SDS011;1386;50.862;6.494;2023-02-28T09:16:24;5.30;;;3.50;;
2756;SDS011;1386;50.862;6.494;2023-02-28T09:18:50;6.70;;;3.23;;
2756;SDS011;1386;50.862;6.494;2023-02-28T09:21:18;4.07;;;3.30;;
2756;SDS011;1386;50.862;6.494;2023-02-28T09:24:01;3.37;;;3.10;;
2756;SDS011;1386;50.862;6.494;2023-02-28T09:26:28;3.47;;;3.17;;
2756;SDS011;1386;50.862;6.494;2023-02-28T09:28:55;3.20;;;2.90;;
2756;SDS011;1386;50.862;6.494;2023-02-28T09:31:24;3.00;;;2.80;;
2756;SDS011;1386;50.862;6.494;2023-02-28T09:33:59;3.10;;;2.80;;
2756;SDS011;1386;50.862;6.494;2023-02-28T09:36:34;2.90;;;2.60;;
2756;SDS011;1386;50.862;6.494;2023-02-28T09:39:04;2.90;;;2.67;;
2756;SDS011;1386;50.862;6.494;2023-02-28T09:41:36;3.40;;;2.90;;
2756;SDS011;1386;50.862;6.494;2023-02-28T09:44:13;3.27;;;2.97;;
2756;SDS011;1386;50.862;6.494;2023-02-28T09:46:55;4.17;;;3.70;;
2756;SDS011;1386;50.862;6.494;2023-02-28T09:49:25;4.00;;;2.80;;
2756;SDS011;1386;50.862;6.494;2023-02-28T09:52:04;2.70;;;2.50;;
2756;SDS011;1386;50.862;6.494;2023-02-28T09:54:37;3.60;;;3.30;;
2756;SDS011;1386;50.862;6.494;2023-02-28T09:57:08;2.73;;;2.53;;
2756;SDS011;1386;50.862;6.494;2023-02-28T09:59:50;3.97;;;3.07;;
2756;SDS011;1386;50.862;6.494;2023-02-28T10:05:35;3.20;;;3.00;;
2756;SDS011;1386;50.862;6.494;2023-02-28T10:08:08;2.90;;;2.63;;
2756;SDS011;1386;50.862;6.494;2023-02-28T10:10:41;3.30;;;3.00;;
2756;SDS011;1386;50.862;6.494;2023-02-28T10:13:15;3.53;;;2.53;;
2756;SDS011;1386;50.862;6.494;2023-02-28T10:15:46;3.90;;;3.07;;
2756;SDS011;1386;50.862;6.494;2023-02-28T10:18:20;3.30;;;3.00;;
2756;SDS011;1386;50.862;6.494;2023-02-28T10:20:51;4.17;;;3.77;;
2756;SDS011;1386;50.862;6.494;2023-02-28T10:23:31;3.07;;;2.87;;
2756;SDS011;1386;50.862;6.494;2023-02-28T10:26:05;2.77;;;2.57;;
2756;SDS011;1386;50.862;6.494;2023-02-28T10:28:37;3.37;;;3.13;;
2756;SDS011;1386;50.862;6.494;2023-02-28T10:31:04;3.10;;;2.80;;
2756;SDS011;1386;50.862;6.494;2023-02-28T10:33:37;2.60;;;2.40;;
2756;SDS011;1386;50.862;6.494;2023-02-28T10:36:10;3.20;;;2.90;;
2756;SDS011;1386;50.862;6.494;2023-02-28T10:38:43;3.33;;;3.00;;
2756;SDS011;1386;50.862;6.494;2023-02-28T10:41:15;3.97;;;2.97;;
2756;SDS011;1386;50.862;6.494;2023-02-28T10:43:52;2.90;;;2.70;;
2756;SDS011;1386;50.862;6.494;2023-02-28T10:46:41;2.90;;;2.70;;
2756;SDS011;1386;50.862;6.494;2023-02-28T10:49:13;3.67;;;3.10;;
2756;SDS011;1386;50.862;6.494;2023-02-28T10:51:43;3.30;;;2.80;;
2756;SDS011;1386;50.862;6.494;2023-02-28T10:54:14;6.27;;;3.03;;
2756;SDS011;1386;50.862;6.494;2023-02-28T10:56:44;2.90;;;2.70;;
2756;SDS011;1386;50.862;6.494;2023-02-28T10:59:26;3.83;;;2.93;;
2756;SDS011;1386;50.862;6.494;2023-02-28T11:01:54;3.67;;;3.20;;
2756;SDS011;1386;50.862;6.494;2023-02-28T11:04:32;3.40;;;2.87;;
2756;SDS011;1386;50.862;6.494;2023-02-28T11:07:04;3.40;;;3.03;;
2756;SDS011;1386;50.862;6.494;2023-02-28T11:09:32;3.80;;;3.43;;
2756;SDS011;1386;50.862;6.494;2023-02-28T11:12:06;3.20;;;2.90;;
2756;SDS011;1386;50.862;6.494;2023-02-28T11:14:47;3.03;;;2.73;;
2756;SDS011;1386;50.862;6.494;2023-02-28T11:17:18;2.97;;;2.77;;
2756;SDS011;1386;50.862;6.494;2023-02-28T11:19:54;2.80;;;2.60;;
2756;SDS011;1386;50.862;6.494;2023-02-28T11:22:23;4.50;;;3.07;;
2756;SDS011;1386;50.862;6.494;2023-02-28T11:24:56;3.17;;;2.87;;
2756;SDS011;1386;50.862;6.494;2023-02-28T11:27:47;3.30;;;2.93;;
2756;SDS011;1386;50.862;6.494;2023-02-28T11:30:23;3.07;;;2.87;;
2756;SDS011;1386;50.862;6.494;2023-02-28T11:32:52;2.80;;;2.60;;
2756;SDS011;1386;50.862;6.494;2023-02-28T11:35:21;5.53;;;2.90;;
2756;SDS011;1386;50.862;6.494;2023-02-28T11:37:52;3.53;;;3.00;;
2756;SDS011;1386;50.862;6.494;2023-02-28T11:40:21;3.20;;;3.00;;
2756;SDS011;1386;50.862;6.494;2023-02-28T11:42:59;3.90;;;3.23;;
2756;SDS011;1386;50.862;6.494;2023-02-28T11:45:39;4.33;;;2.70;;
2756;SDS011;1386;50.862;6.494;2023-02-28T11:48:27;3.80;;;3.50;;
2756;SDS011;1386;50.862;6.494;2023-02-28T11:51:04;5.77;;;2.80;;
2756;SDS011;1386;50.862;6.494;2023-02-28T11:56:36;3.53;;;2.53;;
2756;SDS011;1386;50.862;6.494;2023-02-28T11:59:13;3.87;;;2.60;;
2756;SDS011;1386;50.862;6.494;2023-02-28T12:02:06;3.57;;;2.50;;
2756;SDS011;1386;50.862;6.494;2023-02-28T12:04:52;2.90;;;2.60;;
2756;SDS011;1386;50.862;6.494;2023-02-28T12:07:35;2.70;;;2.50;;
2756;SDS011;1386;50.862;6.494;2023-02-28T12:10:15;3.07;;;2.87;;
2756;SDS011;1386;50.862;6.494;2023-02-28T12:12:49;2.83;;;2.50;;
2756;SDS011;1386;50.862;6.494;2023-02-28T12:15:52;4.70;;;3.10;;
2756;SDS011;1386;50.862;6.494;2023-02-28T12:18:42;10.40;;;3.30;;
2756;SDS011;1386;50.862;6.494;2023-02-28T12:21:30;3.37;;;2.57;;
2756;SDS011;1386;50.862;6.494;2023-02-28T12:24:16;4.97;;;3.33;;
2756;SDS011;1386;50.862;6.494;2023-02-28T12:26:59;3.77;;;3.37;;
2756;SDS011;1386;50.862;6.494;2023-02-28T12:29:30;3.40;;;2.67;;
2756;SDS011;1386;50.862;6.494;2023-02-28T12:32:01;4.93;;;3.30;;
2756;SDS011;1386;50.862;6.494;2023-02-28T12:34:32;4.53;;;3.10;;
2756;SDS011;1386;50.862;6.494;2023-02-28T12:37:03;3.93;;;3.63;;
2756;SDS011;1386;50.862;6.494;2023-02-28T12:39:36;3.40;;;3.10;;
2756;SDS011;1386;50.862;6.494;2023-02-28T12:42:10;3.17;;;2.80;;
2756;SDS011;1386;50.862;6.494;2023-02-28T12:44:44;3.07;;;2.87;;
2756;SDS011;1386;50.862;6.494;2023-02-28T12:47:16;4.40;;;3.63;;
2756;SDS011;1386;50.862;6.494;2023-02-28T12:49:45;4.00;;;3.70;;
2756;SDS011;1386;50.862;6.494;2023-02-28T12:52:17;5.90;;;3.77;;
2756;SDS011;1386;50.862;6.494;2023-02-28T12:54:52;4.27;;;3.87;;
2756;SDS011;1386;50.862;6.494;2023-02-28T12:57:27;5.83;;;3.07;;
2756;SDS011;1386;50.862;6.494;2023-02-28T13:00:03;4.30;;;3.90;;
2756;SDS011;1386;50.862;6.494;2023-02-28T13:02:44;3.40;;;3.10;;
2756;SDS011;1386;50.862;6.494;2023-02-28T13:11:25;3.20;;;3.00;;
2756;SDS011;1386;50.862;6.494;2023-02-28T13:13:59;4.73;;;3.00;;
2756;SDS011;1386;50.862;6.494;2023-02-28T13:16:30;3.53;;;3.23;;
2756;SDS011;1386;50.862;6.494;2023-02-28T13:19:35;3.60;;;3.30;;
2756;SDS011;1386;50.862;6.494;2023-02-28T13:22:04;3.90;;;3.50;;
2756;SDS011;1386;50.862;6.494;2023-02-28T13:24:42;4.10;;;3.80;;
2756;SDS011;1386;50.862;6.494;2023-02-28T13:27:31;5.07;;;3.40;;
2756;SDS011;1386;50.862;6.494;2023-02-28T13:35:50;4.17;;;3.80;;
2756;SDS011;1386;50.862;6.494;2023-02-28T13:38:40;4.70;;;3.60;;
2756;SDS011;1386;50.862;6.494;2023-02-28T13:44:16;3.43;;;3.10;;
2756;SDS011;1386;50.862;6.494;2023-02-28T13:49:45;5.37;;;3.47;;
2756;SDS011;1386;50.862;6.494;2023-02-28T13:52:14;3.77;;;3.43;;
2756;SDS011;1386;50.862;6.494;2023-02-28T13:54:49;4.57;;;3.70;;
2756;SDS011;1386;50.862;6.494;2023-02-28T13:57:33;6.63;;;4.73;;
2756;SDS011;1386;50.862;6.494;2023-02-28T14:00:17;3.60;;;3.30;;
2756;SDS011;1386;50.862;6.494;2023-02-28T14:02:59;5.47;;;3.67;;
2756;SDS011;1386;50.862;6.494;2023-02-28T14:05:44;4.00;;;3.70;;
2756;SDS011;1386;50.862;6.494;2023-02-28T14:08:13;6.10;;;3.80;;
2756;SDS011;1386;50.862;6.494;2023-02-28T14:11:02;4.03;;;3.53;;
2756;SDS011;1386;50.862;6.494;2023-02-28T14:13:39;5.97;;;3.83;;
2756;SDS011;1386;50.862;6.494;2023-02-28T14:16:12;3.60;;;3.20;;
2756;SDS011;1386;50.862;6.494;2023-02-28T14:18:41;4.77;;;4.30;;
2756;SDS011;1386;50.862;6.494;2023-02-28T14:21:20;6.47;;;3.60;;
2756;SDS011;1386;50.862;6.494;2023-02-28T14:27:21;4.30;;;4.00;;
2756;SDS011;1386;50.862;6.494;2023-02-28T14:33:05;5.17;;;3.73;;
2756;SDS011;1386;50.862;6.494;2023-02-28T14:35:50;8.00;;;3.97;;
2756;SDS011;1386;50.862;6.494;2023-02-28T14:38:30;5.43;;;4.17;;
2756;SDS011;1386;50.862;6.494;2023-02-28T14:41:04;5.30;;;3.80;;
2756;SDS011;1386;50.862;6.494;2023-02-28T14:43:47;4.50;;;4.10;;
2756;SDS011;1386;50.862;6.494;2023-02-28T14:49:42;5.30;;;3.93;;
2756;SDS011;1386;50.862;6.494;2023-02-28T14:52:21;4.10;;;3.70;;
2756;SDS011;1386;50.862;6.494;2023-02-28T14:55:00;4.40;;;4.00;;
2756;SDS011;1386;50.862;6.494;2023-02-28T14:57:51;4.93;;;4.53;;
2756;SDS011;1386;50.862;6.494;2023-02-28T15:00:23;4.93;;;4.30;;
2756;SDS011;1386;50.862;6.494;2023-02-28T15:08:31;6.20;;;4.33;;
2756;SDS011;1386;50.862;6.494;2023-02-28T15:11:01;5.77;;;4.27;;
2756;SDS011;1386;50.862;6.494;2023-02-28T15:13:39;5.20;;;4.30;;
2756;SDS011;1386;50.862;6.494;2023-02-28T15:16:09;6.60;;;5.10;;
2756;SDS011;1386;50.862;6.494;2023-02-28T15:18:41;6.87;;;5.17;;
2756;SDS011;1386;50.862;6.494;2023-02-28T15:21:12;5.77;;;4.40;;
2756;SDS011;1386;50.862;6.494;2023-02-28T15:23:41;5.07;;;4.40;;
2756;SDS011;1386;50.862;6.494;2023-02-28T15:26:10;5.33;;;4.37;;
2756;SDS011;1386;50.862;6.494;2023-02-28T15:28:49;8.10;;;5.43;;
2756;SDS011;1386;50.862;6.494;2023-02-28T15:31:21;5.17;;;4.67;;
2756;SDS011;1386;50.862;6.494;2023-02-28T15:33:54;5.07;;;3.53;;
2756;SDS011;1386;50.862;6.494;2023-02-28T15:36:24;6.17;;;5.07;;
2756;SDS011;1386;50.862;6.494;2023-02-28T15:38:53;7.63;;;4.00;;
2756;SDS011;1386;50.862;6.494;2023-02-28T15:41:22;5.43;;;4.03;;
2756;SDS011;1386;50.862;6.494;2023-02-28T15:46:56;3.30;;;3.00;;
2756;SDS011;1386;50.862;6.494;2023-02-28T15:49:26;5.90;;;4.30;;
2756;SDS011;1386;50.862;6.494;2023-02-28T15:51:53;4.63;;;3.97;;
2756;SDS011;1386;50.862;6.494;2023-02-28T15:54:27;4.17;;;3.77;;
2756;SDS011;1386;50.862;6.494;2023-02-28T15:57:02;6.40;;;3.80;;
2756;SDS011;1386;50.862;6.494;2023-02-28T15:59:35;5.90;;;4.77;;
2756;SDS011;1386;50.862;6.494;2023-02-28T16:02:13;6.30;;;4.63;;
2756;SDS011;1386;50.862;6.494;2023-02-28T16:04:59;5.37;;;4.37;;
2756;SDS011;1386;50.862;6.494;2023-02-28T16:07:28;4.70;;;4.20;;
2756;SDS011;1386;50.862;6.494;2023-02-28T16:09:55;5.07;;;4.20;;
2756;SDS011;1386;50.862;6.494;2023-02-28T16:12:24;8.20;;;4.80;;
2756;SDS011;1386;50.862;6.494;2023-02-28T16:14:55;5.67;;;5.17;;
2756;SDS011;1386;50.862;6.494;2023-02-28T16:17:24;5.00;;;4.30;;
2756;SDS011;1386;50.862;6.494;2023-02-28T16:19:52;5.10;;;4.20;;
2756;SDS011;1386;50.862;6.494;2023-02-28T16:22:20;5.70;;;4.70;;
2756;SDS011;1386;50.862;6.494;2023-02-28T16:24:47;8.00;;;5.90;;
2756;SDS011;1386;50.862;6.494;2023-02-28T16:27:15;6.83;;;4.93;;
2756;SDS011;1386;50.862;6.494;2023-02-28T16:29:52;4.70;;;4.30;;
2756;SDS011;1386;50.862;6.494;2023-02-28T16:32:21;5.97;;;4.83;;
2756;SDS011;1386;50.862;6.494;2023-02-28T16:34:48;9.90;;;6.23;;
2756;SDS011;1386;50.862;6.494;2023-02-28T16:37:16;7.47;;;5.60;;
2756;SDS011;1386;50.862;6.494;2023-02-28T16:39:44;10.40;;;7.40;;
2756;SDS011;1386;50.862;6.494;2023-02-28T16:42:14;11.33;;;7.67;;
2756;SDS011;1386;50.862;6.494;2023-02-28T16:44:44;11.10;;;7.30;;
2756;SDS011;1386;50.862;6.494;2023-02-28T16:47:13;9.70;;;7.10;;
2756;SDS011;1386;50.862;6.494;2023-02-28T16:49:41;10.37;;;7.10;;
2756;SDS011;1386;50.862;6.494;2023-02-28T16:52:08;12.33;;;7.70;;
2756;SDS011;1386;50.862;6.494;2023-02-28T16:54:43;15.30;;;6.60;;
2756;SDS011;1386;50.862;6.494;2023-02-28T16:57:14;6.20;;;5.63;;
2756;SDS011;1386;50.862;6.494;2023-02-28T16:59:46;11.73;;;4.27;;
2756;SDS011;1386;50.862;6.494;2023-02-28T17:02:14;4.37;;;3.97;;
2756;SDS011;1386;50.862;6.494;2023-02-28T17:04:45;18.83;;;5.97;;
2756;SDS011;1386;50.862;6.494;2023-02-28T17:07:15;5.63;;;4.40;;
2756;SDS011;1386;50.862;6.494;2023-02-28T17:09:43;5.80;;;4.17;;
2756;SDS011;1386;50.862;6.494;2023-02-28T17:12:10;4.80;;;4.30;;
2756;SDS011;1386;50.862;6.494;2023-02-28T17:14:37;6.27;;;4.60;;
2756;SDS011;1386;50.862;6.494;2023-02-28T17:17:04;7.70;;;4.47;;
2756;SDS011;1386;50.862;6.494;2023-02-28T17:19:32;5.03;;;4.53;;
2756;SDS011;1386;50.862;6.494;2023-02-28T17:22:04;8.73;;;4.30;;
2756;SDS011;1386;50.862;6.494;2023-02-28T17:24:30;9.60;;;4.80;;
2756;SDS011;1386;50.862;6.494;2023-02-28T17:26:57;4.80;;;3.97;;
2756;SDS011;1386;50.862;6.494;2023-02-28T17:29:24;6.50;;;4.10;;
2756;SDS011;1386;50.862;6.494;2023-02-28T17:31:51;8.50;;;4.07;;
2756;SDS011;1386;50.862;6.494;2023-02-28T17:34:21;6.23;;;4.20;;
2756;SDS011;1386;50.862;6.494;2023-02-28T17:36:50;9.50;;;4.50;;
2756;SDS011;1386;50.862;6.494;2023-02-28T17:39:18;10.63;;;4.57;;
2756;SDS011;1386;50.862;6.494;2023-02-28T17:41:53;8.83;;;4.37;;
2756;SDS011;1386;50.862;6.494;2023-02-28T17:44:21;13.03;;;4.90;;
2756;SDS011;1386;50.862;6.494;2023-02-28T17:46:54;7.00;;;4.60;;
2756;SDS011;1386;50.862;6.494;2023-02-28T17:49:22;13.63;;;4.80;;
2756;SDS011;1386;50.862;6.494;2023-02-28T17:51:50;12.40;;;4.97;;
2756;SDS011;1386;50.862;6.494;2023-02-28T17:54:17;9.20;;;4.47;;
2756;SDS011;1386;50.862;6.494;2023-02-28T17:56:45;8.77;;;5.00;;
2756;SDS011;1386;50.862;6.494;2023-02-28T17:59:12;11.70;;;4.63;;
2756;SDS011;1386;50.862;6.494;2023-02-28T18:01:39;4.87;;;4.37;;
2756;SDS011;1386;50.862;6.494;2023-02-28T18:04:10;4.13;;;3.80;;
2756;SDS011;1386;50.862;6.494;2023-02-28T18:06:37;4.63;;;4.23;;
2756;SDS011;1386;50.862;6.494;2023-02-28T18:09:12;4.90;;;4.27;;
2756;SDS011;1386;50.862;6.494;2023-02-28T18:11:40;7.27;;;4.60;;
2756;SDS011;1386;50.862;6.494;2023-02-28T18:14:08;7.07;;;4.50;;
2756;SDS011;1386;50.862;6.494;2023-02-28T18:16:35;7.60;;;4.70;;
2756;SDS011;1386;50.862;6.494;2023-02-28T18:19:02;6.17;;;4.63;;
2756;SDS011;1386;50.862;6.494;2023-02-28T18:21:31;8.20;;;5.00;;
2756;SDS011;1386;50.862;6.494;2023-02-28T18:23:59;5.77;;;4.90;;
2756;SDS011;1386;50.862;6.494;2023-02-28T18:26:29;8.43;;;5.20;;
2756;SDS011;1386;50.862;6.494;2023-02-28T18:28:56;6.10;;;5.50;;
2756;SDS011;1386;50.862;6.494;2023-02-28T18:31:23;6.13;;;5.53;;
2756;SDS011;1386;50.862;6.494;2023-02-28T18:33:50;12.10;;;5.40;;
2756;SDS011;1386;50.862;6.494;2023-02-28T18:36:20;7.53;;;5.60;;
2756;SDS011;1386;50.862;6.494;2023-02-28T18:38:47;9.43;;;5.33;;
2756;SDS011;1386;50.862;6.494;2023-02-28T18:41:16;8.60;;;5.30;;
2756;SDS011;1386;50.862;6.494;2023-02-28T18:43:47;9.27;;;5.53;;
2756;SDS011;1386;50.862;6.494;2023-02-28T18:46:16;5.93;;;5.23;;
2756;SDS011;1386;50.862;6.494;2023-02-28T18:48:44;8.43;;;5.27;;
2756;SDS011;1386;50.862;6.494;2023-02-28T18:51:13;14.13;;;6.13;;
2756;SDS011;1386;50.862;6.494;2023-02-28T18:53:42;10.63;;;6.40;;